createdAt,value
2019-03-19T00:00:55.049Z,0
2019-03-19T00:01:55.028Z,0
2019-03-19T00:02:55.005Z,0
2019-03-19T00:03:54.988Z,0
2019-03-19T00:04:54.966Z,0
2019-03-19T00:05:54.713Z,0
2019-03-19T00:06:54.945Z,0
2019-03-19T00:07:54.947Z,0
2019-03-19T00:08:54.957Z,0
2019-03-19T00:09:54.909Z,0
2019-03-19T00:10:54.644Z,0
2019-03-19T00:11:54.877Z,0
2019-03-19T00:12:54.881Z,0
2019-03-19T00:13:54.905Z,0
2019-03-19T00:14:54.833Z,0
2019-03-19T00:15:54.815Z,0
2019-03-19T00:16:54.795Z,0
2019-03-19T00:17:54.793Z,0
2019-03-19T00:18:54.773Z,0
2019-03-19T00:19:54.522Z,0
2019-03-19T00:20:54.748Z,0
2019-03-19T00:21:54.732Z,0
2019-03-19T00:22:54.475Z,0
2019-03-19T00:23:54.706Z,0
2019-03-19T00:24:54.693Z,0
2019-03-19T00:25:55.636Z,0
2019-03-19T00:26:54.652Z,0
2019-03-19T00:27:54.636Z,0
2019-03-19T00:28:54.632Z,0
2019-03-19T00:29:54.614Z,0
2019-03-19T00:30:54.608Z,0
2019-03-19T00:31:54.585Z,0
2019-03-19T00:32:54.562Z,0
2019-03-19T00:33:54.584Z,0
2019-03-19T00:34:54.543Z,0
2019-03-19T00:35:54.545Z,0
2019-03-19T00:36:54.505Z,0
2019-03-19T00:37:54.492Z,0
2019-03-19T00:38:54.495Z,0
2019-03-19T00:39:54.522Z,0
2019-03-19T00:40:54.445Z,0
2019-03-19T00:41:54.438Z,0
2019-03-19T00:42:54.415Z,0
2019-03-19T00:43:54.404Z,0
2019-03-19T00:44:54.394Z,0
2019-03-19T00:45:54.377Z,0
2019-03-19T00:46:54.356Z,0
2019-03-19T00:47:54.340Z,0
2019-03-19T00:48:54.088Z,0
2019-03-19T00:49:54.311Z,0
2019-03-19T00:50:54.061Z,0
2019-03-19T00:51:54.283Z,0
2019-03-19T00:52:54.276Z,0
2019-03-19T00:53:54.258Z,0
2019-03-19T00:54:54.240Z,0
2019-03-19T00:55:54.226Z,0
2019-03-19T00:56:54.213Z,0
2019-03-19T00:57:53.957Z,0
2019-03-19T00:58:54.176Z,0
2019-03-19T00:59:54.169Z,0
2019-03-19T01:00:54.150Z,0
2019-03-19T01:01:54.132Z,0
2019-03-19T01:02:53.896Z,0
2019-03-19T01:03:54.145Z,0
2019-03-19T01:04:54.090Z,0
2019-03-19T01:05:54.069Z,0
2019-03-19T01:06:54.064Z,0
2019-03-19T01:07:54.103Z,0
2019-03-19T01:08:54.029Z,0
2019-03-19T01:09:54.071Z,0
2019-03-19T01:10:53.999Z,0
2019-03-19T01:11:53.985Z,0
2019-03-19T01:12:54.014Z,0
2019-03-19T01:13:53.954Z,0
2019-03-19T01:14:53.938Z,0
2019-03-19T01:15:53.951Z,0
2019-03-19T01:16:53.907Z,0
2019-03-19T01:17:53.893Z,0
2019-03-19T01:18:53.899Z,0
2019-03-19T01:19:53.864Z,0
2019-03-19T01:20:53.855Z,0
2019-03-19T01:21:53.834Z,0
2019-03-19T01:22:53.823Z,0
2019-03-19T01:23:53.824Z,0
2019-03-19T01:24:53.795Z,0
2019-03-19T01:26:04.894Z,0
2019-03-19T01:26:53.755Z,0
2019-03-19T01:27:53.506Z,0
2019-03-19T01:28:53.729Z,0
2019-03-19T01:29:53.713Z,0
2019-03-19T01:30:53.716Z,0
2019-03-19T01:31:53.683Z,0
2019-03-19T01:32:53.672Z,0
2019-03-19T01:33:53.655Z,0
2019-03-19T01:34:53.637Z,0
2019-03-19T01:35:53.619Z,0
2019-03-19T01:36:53.667Z,0
2019-03-19T01:37:53.598Z,0
2019-03-19T01:38:53.583Z,0
2019-03-19T01:39:53.587Z,0
2019-03-19T01:40:53.546Z,0
2019-03-19T01:41:53.591Z,0
2019-03-19T01:42:53.533Z,0
2019-03-19T01:43:53.500Z,0
2019-03-19T01:44:53.481Z,0
2019-03-19T01:45:53.472Z,0
2019-03-19T01:46:53.511Z,0
2019-03-19T01:47:53.443Z,0
2019-03-19T01:48:53.451Z,0
2019-03-19T01:49:53.409Z,0
2019-03-19T01:50:53.406Z,0
2019-03-19T01:51:53.379Z,0
2019-03-19T01:52:53.371Z,0
2019-03-19T01:53:53.348Z,0
2019-03-19T01:54:53.340Z,0
2019-03-19T01:55:53.372Z,0
2019-03-19T01:56:53.304Z,0
2019-03-19T01:57:53.287Z,0
2019-03-19T01:58:53.284Z,0
2019-03-19T01:59:53.317Z,0
2019-03-19T02:00:53.249Z,0
2019-03-19T02:01:53.256Z,0
2019-03-19T02:02:53.219Z,0
2019-03-19T02:03:53.233Z,0
2019-03-19T02:04:53.192Z,0
2019-03-19T02:05:53.175Z,0
2019-03-19T02:06:53.156Z,0
2019-03-19T02:07:53.170Z,0
2019-03-19T02:08:53.123Z,0
2019-03-19T02:09:53.124Z,0
2019-03-19T02:10:53.093Z,0
2019-03-19T02:11:53.090Z,0
2019-03-19T02:12:53.070Z,0
2019-03-19T02:13:53.056Z,0
2019-03-19T02:14:53.036Z,0
2019-03-19T02:15:52.777Z,0
2019-03-19T02:16:53.005Z,0
2019-03-19T02:17:52.756Z,0
2019-03-19T02:18:52.978Z,0
2019-03-19T02:19:52.971Z,0
2019-03-19T02:20:52.710Z,0
2019-03-19T02:21:52.944Z,0
2019-03-19T02:22:52.919Z,0
2019-03-19T02:23:52.912Z,0
2019-03-19T02:24:52.893Z,0
2019-03-19T02:25:52.873Z,0
2019-03-19T02:26:52.860Z,0
2019-03-19T02:27:52.873Z,0
2019-03-19T02:28:52.828Z,0
2019-03-19T02:29:52.824Z,0
2019-03-19T02:30:52.829Z,0
2019-03-19T02:31:52.802Z,0
2019-03-19T02:32:52.845Z,0
2019-03-19T02:33:52.771Z,0
2019-03-19T02:34:52.800Z,0
2019-03-19T02:35:52.751Z,0
2019-03-19T02:36:52.767Z,0
2019-03-19T02:37:52.729Z,0
2019-03-19T02:38:52.708Z,0
2019-03-19T02:39:52.455Z,0
2019-03-19T02:40:52.683Z,0
2019-03-19T02:41:52.688Z,0
2019-03-19T02:42:52.671Z,0
2019-03-19T02:43:52.618Z,0
2019-03-19T02:44:52.608Z,0
2019-03-19T02:45:52.609Z,0
2019-03-19T02:46:52.626Z,0
2019-03-19T02:47:52.638Z,0
2019-03-19T02:48:52.584Z,0
2019-03-19T02:49:52.542Z,0
2019-03-19T02:50:52.287Z,0
2019-03-19T02:51:52.547Z,0
2019-03-19T02:52:52.530Z,0
2019-03-19T02:53:52.608Z,0
2019-03-19T02:54:52.478Z,0
2019-03-19T02:55:52.204Z,0
2019-03-19T02:56:52.463Z,0
2019-03-19T02:57:52.420Z,0
2019-03-19T02:58:52.426Z,0
2019-03-19T02:59:52.401Z,0
2019-03-19T03:00:52.394Z,0
2019-03-19T03:01:52.386Z,0
2019-03-19T03:02:52.363Z,0
2019-03-19T03:03:52.365Z,0
2019-03-19T03:04:52.359Z,0
2019-03-19T03:05:52.319Z,0
2019-03-19T03:06:52.298Z,0
2019-03-19T03:07:52.357Z,0
2019-03-19T03:08:52.323Z,0
2019-03-19T03:09:52.323Z,0
2019-03-19T03:10:52.260Z,0
2019-03-19T03:11:52.229Z,0
2019-03-19T03:12:52.232Z,0
2019-03-19T03:13:52.214Z,0
2019-03-19T03:14:55.641Z,0
2019-03-19T03:15:52.171Z,0
2019-03-19T03:16:52.233Z,0
2019-03-19T03:17:52.199Z,0
2019-03-19T03:18:52.140Z,0
2019-03-19T03:19:52.126Z,0
2019-03-19T03:20:51.894Z,0
2019-03-19T03:21:52.099Z,0
2019-03-19T03:22:51.914Z,0
2019-03-19T03:23:52.085Z,0
2019-03-19T03:24:52.049Z,0
2019-03-19T03:25:52.043Z,0
2019-03-19T03:26:57.707Z,0
2019-03-19T03:27:52.046Z,0
2019-03-19T03:28:52.018Z,0
2019-03-19T03:29:51.984Z,0
2019-03-19T03:30:52.061Z,0
2019-03-19T03:31:52.002Z,0
2019-03-19T03:32:52.444Z,0
2019-03-19T03:33:51.957Z,0
2019-03-19T03:34:51.972Z,0
2019-03-19T03:35:51.913Z,0
2019-03-19T03:36:51.893Z,0
2019-03-19T03:37:51.896Z,0
2019-03-19T03:38:51.904Z,0
2019-03-19T03:39:51.849Z,0
2019-03-19T03:40:51.834Z,0
2019-03-19T03:41:51.847Z,0
2019-03-19T03:42:52.759Z,0
2019-03-19T03:43:51.801Z,0
2019-03-19T03:44:51.789Z,0
2019-03-19T03:45:51.901Z,0
2019-03-19T03:46:51.776Z,0
2019-03-19T03:47:51.750Z,0
2019-03-19T03:48:51.730Z,0
2019-03-19T03:49:52.982Z,0
2019-03-19T03:50:51.688Z,0
2019-03-19T03:51:51.694Z,0
2019-03-19T03:52:51.760Z,0
2019-03-19T03:53:51.661Z,0
2019-03-19T03:54:51.649Z,0
2019-03-19T03:55:51.633Z,0
2019-03-19T03:57:05.954Z,0
2019-03-19T03:57:51.360Z,0
2019-03-19T03:59:04.660Z,0
2019-03-19T03:59:51.583Z,0
2019-03-19T04:00:51.565Z,0
2019-03-19T04:01:51.550Z,0
2019-03-19T04:02:54.070Z,0
2019-03-19T04:03:51.513Z,0
2019-03-19T04:04:51.309Z,0
2019-03-19T04:05:51.481Z,0
2019-03-19T04:06:51.494Z,0
2019-03-19T04:07:51.464Z,0
2019-03-19T04:08:51.479Z,0
2019-03-19T04:09:51.433Z,0
2019-03-19T04:10:51.433Z,0
2019-03-19T04:11:51.410Z,0
2019-03-19T04:12:51.440Z,0
2019-03-19T04:13:51.380Z,0
2019-03-19T04:14:53.795Z,0
2019-03-19T04:15:51.344Z,0
2019-03-19T04:16:51.342Z,0
2019-03-19T04:17:51.398Z,0
2019-03-19T04:18:51.325Z,0
2019-03-19T04:19:51.319Z,0
2019-03-19T04:20:51.054Z,0
2019-03-19T04:21:51.295Z,0
2019-03-19T04:22:51.037Z,0
2019-03-19T04:23:51.242Z,0
2019-03-19T04:24:51.225Z,0
2019-03-19T04:25:51.221Z,0
2019-03-19T04:26:51.211Z,0
2019-03-19T04:27:51.210Z,0
2019-03-19T04:28:51.193Z,0
2019-03-19T04:29:51.177Z,0
2019-03-19T04:30:51.142Z,0
2019-03-19T04:31:51.130Z,0
2019-03-19T04:32:51.128Z,0
2019-03-19T04:33:51.099Z,0
2019-03-19T04:34:51.083Z,0
2019-03-19T04:35:51.926Z,0
2019-03-19T04:36:51.064Z,0
2019-03-19T04:37:51.068Z,0
2019-03-19T04:38:51.036Z,0
2019-03-19T04:39:51.044Z,0
2019-03-19T04:40:52.170Z,0
2019-03-19T04:41:50.757Z,0
2019-03-19T04:42:51.016Z,0
2019-03-19T04:43:50.964Z,0
2019-03-19T04:44:50.974Z,0
2019-03-19T04:45:50.942Z,0
2019-03-19T04:46:50.926Z,0
2019-03-19T04:47:50.925Z,0
2019-03-19T04:48:50.895Z,0
2019-03-19T04:49:50.896Z,0
2019-03-19T04:50:50.868Z,0
2019-03-19T04:51:50.860Z,0
2019-03-19T04:52:50.845Z,0
2019-03-19T04:53:50.832Z,0
2019-03-19T04:54:50.576Z,0
2019-03-19T04:55:50.797Z,0
2019-03-19T04:56:50.797Z,0
2019-03-19T04:57:50.848Z,0
2019-03-19T04:58:50.772Z,0
2019-03-19T04:59:50.748Z,0
2019-03-19T05:00:50.735Z,0
2019-03-19T05:01:50.717Z,0
2019-03-19T05:02:50.716Z,0
2019-03-19T05:03:50.725Z,0
2019-03-19T05:04:50.682Z,0
2019-03-19T05:05:50.663Z,0
2019-03-19T05:06:50.655Z,0
2019-03-19T05:07:50.409Z,5
2019-03-19T05:08:50.630Z,5
2019-03-19T05:09:50.614Z,5
2019-03-19T05:10:50.360Z,5
2019-03-19T05:11:50.590Z,5
2019-03-19T05:12:50.622Z,5
2019-03-19T05:13:50.567Z,5
2019-03-19T05:14:50.547Z,10
2019-03-19T05:15:50.543Z,10
2019-03-19T05:16:50.535Z,10
2019-03-19T05:17:50.509Z,10
2019-03-19T05:18:50.503Z,10
2019-03-19T05:19:50.481Z,10
2019-03-19T05:20:50.468Z,10
2019-03-19T05:21:50.453Z,15
2019-03-19T05:22:50.441Z,15
2019-03-19T05:23:50.429Z,15
2019-03-19T05:24:50.418Z,15
2019-03-19T05:25:50.400Z,15
2019-03-19T05:26:50.386Z,15
2019-03-19T05:27:50.379Z,15
2019-03-19T05:28:50.363Z,20
2019-03-19T05:29:50.355Z,20
2019-03-19T05:30:50.334Z,20
2019-03-19T05:31:50.324Z,25
2019-03-19T05:32:50.307Z,25
2019-03-19T05:33:50.320Z,25
2019-03-19T05:34:50.284Z,30
2019-03-19T05:35:50.282Z,30
2019-03-19T05:36:50.257Z,30
2019-03-19T05:37:50.270Z,30
2019-03-19T05:38:50.261Z,30
2019-03-19T05:39:50.215Z,35
2019-03-19T05:40:50.205Z,35
2019-03-19T05:41:50.199Z,35
2019-03-19T05:42:50.179Z,35
2019-03-19T05:43:50.162Z,35
2019-03-19T05:44:50.154Z,35
2019-03-19T05:45:50.136Z,35
2019-03-19T05:46:50.125Z,40
2019-03-19T05:47:50.478Z,40
2019-03-19T05:48:50.104Z,45
2019-03-19T05:49:50.087Z,45
2019-03-19T05:50:50.075Z,50
2019-03-19T05:51:50.055Z,50
2019-03-19T05:52:51.116Z,50
2019-03-19T05:53:50.034Z,50
2019-03-19T05:54:50.021Z,50
2019-03-19T05:55:50.052Z,50
2019-03-19T05:56:49.764Z,50
2019-03-19T05:57:58.441Z,50
2019-03-19T05:58:49.970Z,50
2019-03-19T05:59:49.954Z,50
2019-03-19T06:00:49.957Z,55
2019-03-19T06:01:49.932Z,55
2019-03-19T06:02:49.919Z,55
2019-03-19T06:03:49.673Z,55
2019-03-19T06:04:49.893Z,55
2019-03-19T06:05:49.881Z,55
2019-03-19T06:06:49.875Z,60
2019-03-19T06:07:49.869Z,60
2019-03-19T06:08:49.844Z,65
2019-03-19T06:09:49.846Z,65
2019-03-19T06:10:49.825Z,65
2019-03-19T06:11:49.808Z,65
2019-03-19T06:12:49.822Z,65
2019-03-19T06:13:49.779Z,65
2019-03-19T06:14:49.770Z,65
2019-03-19T06:15:49.762Z,65
2019-03-19T06:16:49.748Z,65
2019-03-19T06:17:49.753Z,60
2019-03-19T06:18:49.733Z,60
2019-03-19T06:19:49.717Z,65
2019-03-19T06:20:49.699Z,70
2019-03-19T06:21:49.683Z,70
2019-03-19T06:22:49.670Z,75
2019-03-19T06:23:49.661Z,75
2019-03-19T06:24:49.652Z,85
2019-03-19T06:25:49.635Z,95
2019-03-19T06:26:49.679Z,105
2019-03-19T06:27:59.731Z,110
2019-03-19T06:28:49.605Z,120
2019-03-19T06:29:49.586Z,130
2019-03-19T06:30:49.573Z,130
2019-03-19T06:31:49.552Z,140
2019-03-19T06:32:49.569Z,140
2019-03-19T06:33:50.705Z,150
2019-03-19T06:34:49.277Z,155
2019-03-19T06:35:49.570Z,155
2019-03-19T06:36:49.514Z,155
2019-03-19T06:37:49.482Z,160
2019-03-19T06:38:49.471Z,175
2019-03-19T06:39:50.779Z,180
2019-03-19T06:40:49.452Z,185
2019-03-19T06:41:49.437Z,190
2019-03-19T06:42:49.437Z,190
2019-03-19T06:43:49.416Z,195
2019-03-19T06:44:49.406Z,200
2019-03-19T06:45:49.394Z,210
2019-03-19T06:46:49.383Z,215
2019-03-19T06:47:49.378Z,220
2019-03-19T06:48:49.358Z,225
2019-03-19T06:49:49.349Z,235
2019-03-19T06:50:54.881Z,235
2019-03-19T06:51:49.338Z,230
2019-03-19T06:52:49.316Z,225
2019-03-19T06:53:49.301Z,220
2019-03-19T06:54:49.291Z,220
2019-03-19T06:55:49.290Z,225
2019-03-19T06:56:49.269Z,240
2019-03-19T06:57:49.298Z,270
2019-03-19T06:58:49.275Z,255
2019-03-19T06:59:49.244Z,225
2019-03-19T07:00:49.220Z,220
2019-03-19T07:01:49.227Z,215
2019-03-19T07:02:48.973Z,215
2019-03-19T07:03:49.193Z,215
2019-03-19T07:04:49.183Z,210
2019-03-19T07:05:49.180Z,210
2019-03-19T07:06:49.168Z,210
2019-03-19T07:07:49.157Z,215
2019-03-19T07:08:49.149Z,220
2019-03-19T07:09:49.131Z,225
2019-03-19T07:10:49.179Z,225
2019-03-19T07:11:49.111Z,220
2019-03-19T07:12:49.110Z,220
2019-03-19T07:13:49.099Z,220
2019-03-19T07:14:49.089Z,230
2019-03-19T07:15:49.071Z,235
2019-03-19T07:16:49.067Z,240
2019-03-19T07:17:49.073Z,235
2019-03-19T07:18:49.041Z,245
2019-03-19T07:19:49.029Z,250
2019-03-19T07:20:49.018Z,260
2019-03-19T07:21:49.032Z,265
2019-03-19T07:22:49.031Z,275
2019-03-19T07:23:48.994Z,285
2019-03-19T07:24:50.618Z,305
2019-03-19T07:25:48.978Z,315
2019-03-19T07:26:49.017Z,330
2019-03-19T07:27:48.958Z,340
2019-03-19T07:28:48.947Z,355
2019-03-19T07:29:48.932Z,355
2019-03-19T07:30:50.368Z,350
2019-03-19T07:31:48.921Z,375
2019-03-19T07:32:48.921Z,370
2019-03-19T07:33:48.892Z,365
2019-03-19T07:34:48.887Z,375
2019-03-19T07:35:48.886Z,365
2019-03-19T07:36:48.868Z,370
2019-03-19T07:37:48.618Z,350
2019-03-19T07:38:48.851Z,380
2019-03-19T07:39:48.609Z,435
2019-03-19T07:40:48.845Z,365
2019-03-19T07:41:48.823Z,375
2019-03-19T07:42:48.836Z,385
2019-03-19T07:43:48.808Z,455
2019-03-19T07:44:48.809Z,450
2019-03-19T07:45:48.811Z,595
2019-03-19T07:46:50.853Z,420
2019-03-19T07:47:48.770Z,455
2019-03-19T07:48:48.755Z,475
2019-03-19T07:49:48.756Z,465
2019-03-19T07:50:48.749Z,555
2019-03-19T07:51:48.488Z,475
2019-03-19T07:52:48.718Z,545
2019-03-19T07:53:48.717Z,545
2019-03-19T07:54:48.761Z,505
2019-03-19T07:55:48.695Z,520
2019-03-19T07:56:48.718Z,535
2019-03-19T07:57:48.711Z,555
2019-03-19T07:58:54.844Z,510
2019-03-19T07:59:48.664Z,475
2019-03-19T08:00:48.658Z,455
2019-03-19T08:01:48.701Z,440
2019-03-19T08:02:48.654Z,420
2019-03-19T08:03:48.632Z,410
2019-03-19T08:04:48.636Z,415
2019-03-19T08:05:48.623Z,410
2019-03-19T08:06:48.616Z,415
2019-03-19T08:07:48.610Z,440
2019-03-19T08:08:48.622Z,450
2019-03-19T08:09:48.603Z,460
2019-03-19T08:10:48.586Z,470
2019-03-19T08:11:48.585Z,490
2019-03-19T08:12:48.573Z,520
2019-03-19T08:13:48.557Z,545
2019-03-19T08:14:48.687Z,510
2019-03-19T08:15:48.545Z,495
2019-03-19T08:16:48.537Z,505
2019-03-19T08:17:50.184Z,515
2019-03-19T08:18:48.537Z,515
2019-03-19T08:19:48.522Z,500
2019-03-19T08:20:48.501Z,475
2019-03-19T08:21:48.499Z,460
2019-03-19T08:22:48.535Z,460
2019-03-19T08:23:48.480Z,465
2019-03-19T08:24:48.474Z,450
2019-03-19T08:25:48.464Z,435
2019-03-19T08:26:49.205Z,405
2019-03-19T08:27:48.527Z,380
2019-03-19T08:28:57.684Z,355
2019-03-19T08:29:48.439Z,350
2019-03-19T08:30:48.438Z,355
2019-03-19T08:31:48.442Z,340
2019-03-19T08:32:48.471Z,325
2019-03-19T08:33:48.409Z,305
2019-03-19T08:34:48.398Z,285
2019-03-19T08:35:48.391Z,270
2019-03-19T08:36:48.390Z,265
2019-03-19T08:37:47.894Z,265
2019-03-19T08:38:48.370Z,260
2019-03-19T08:39:48.363Z,250
2019-03-19T08:40:48.351Z,255
2019-03-19T08:41:48.349Z,270
2019-03-19T08:42:48.333Z,285
2019-03-19T08:43:48.354Z,285
2019-03-19T08:44:48.319Z,285
2019-03-19T08:45:48.317Z,290
2019-03-19T08:46:48.301Z,290
2019-03-19T08:47:48.287Z,295
2019-03-19T08:48:48.286Z,305
2019-03-19T08:49:48.272Z,320
2019-03-19T08:50:48.263Z,280
2019-03-19T08:51:48.259Z,265
2019-03-19T08:52:48.352Z,275
2019-03-19T08:53:48.239Z,305
2019-03-19T08:54:48.291Z,365
2019-03-19T08:55:48.222Z,445
2019-03-19T08:56:48.214Z,380
2019-03-19T08:57:48.219Z,335
2019-03-19T08:58:48.212Z,385
2019-03-19T08:59:48.191Z,410
2019-03-19T09:00:48.179Z,440
2019-03-19T09:01:49.803Z,360
2019-03-19T09:02:48.188Z,330
2019-03-19T09:03:48.151Z,355
2019-03-19T09:04:48.136Z,365
2019-03-19T09:05:48.138Z,355
2019-03-19T09:06:48.126Z,380
2019-03-19T09:07:48.119Z,410
2019-03-19T09:08:50.314Z,410
2019-03-19T09:09:48.116Z,360
2019-03-19T09:10:48.106Z,375
2019-03-19T09:11:48.082Z,395
2019-03-19T09:12:50.845Z,370
2019-03-19T09:13:47.828Z,400
2019-03-19T09:14:48.051Z,430
2019-03-19T09:15:49.633Z,475
2019-03-19T09:16:48.036Z,470
2019-03-19T09:17:48.031Z,385
2019-03-19T09:18:48.048Z,325
2019-03-19T09:19:48.010Z,305
2019-03-19T09:20:47.999Z,300
2019-03-19T09:21:47.991Z,305
2019-03-19T09:22:47.995Z,330
2019-03-19T09:23:47.975Z,365
2019-03-19T09:24:47.968Z,330
2019-03-19T09:25:47.963Z,295
2019-03-19T09:26:47.955Z,305
2019-03-19T09:27:47.951Z,310
2019-03-19T09:28:47.933Z,310
2019-03-19T09:29:47.927Z,305
2019-03-19T09:30:47.936Z,300
2019-03-19T09:31:47.909Z,320
2019-03-19T09:32:47.907Z,360
2019-03-19T09:33:47.904Z,410
2019-03-19T09:34:47.883Z,475
2019-03-19T09:35:47.883Z,525
2019-03-19T09:36:56.933Z,535
2019-03-19T09:38:04.884Z,525
2019-03-19T09:38:47.867Z,495
2019-03-19T09:39:47.855Z,460
2019-03-19T09:40:48.065Z,425
2019-03-19T09:41:47.834Z,415
2019-03-19T09:42:47.828Z,420
2019-03-19T09:43:47.832Z,405
2019-03-19T09:44:57.903Z,410
2019-03-19T09:45:47.806Z,450
2019-03-19T09:46:47.804Z,520
2019-03-19T09:47:48.065Z,535
2019-03-19T09:48:50.158Z,450
2019-03-19T09:49:47.771Z,365
2019-03-19T09:50:47.762Z,340
2019-03-19T09:51:47.752Z,335
2019-03-19T09:52:47.760Z,350
2019-03-19T09:53:47.744Z,370
2019-03-19T09:54:47.734Z,385
2019-03-19T09:55:47.728Z,410
2019-03-19T09:56:47.723Z,405
2019-03-19T09:57:47.736Z,400
2019-03-19T09:58:47.717Z,440
2019-03-19T09:59:51.506Z,485
2019-03-19T10:00:47.692Z,475
2019-03-19T10:01:47.691Z,415
2019-03-19T10:02:47.686Z,380
2019-03-19T10:03:47.672Z,345
2019-03-19T10:04:47.691Z,320
2019-03-19T10:05:47.677Z,305
2019-03-19T10:06:49.672Z,300
2019-03-19T10:07:47.422Z,320
2019-03-19T10:08:47.639Z,360
2019-03-19T10:09:47.444Z,405
2019-03-19T10:10:48.012Z,420
2019-03-19T10:11:47.631Z,400
2019-03-19T10:12:47.613Z,375
2019-03-19T10:13:47.602Z,350
2019-03-19T10:14:47.595Z,345
2019-03-19T10:15:47.629Z,350
2019-03-19T10:16:47.583Z,365
2019-03-19T10:17:47.582Z,375
2019-03-19T10:18:47.569Z,375
2019-03-19T10:19:47.558Z,365
2019-03-19T10:20:47.565Z,355
2019-03-19T10:21:47.298Z,350
2019-03-19T10:22:47.546Z,350
2019-03-19T10:23:47.537Z,360
2019-03-19T10:24:47.526Z,385
2019-03-19T10:25:47.675Z,400
2019-03-19T10:26:47.510Z,440
2019-03-19T10:27:47.521Z,455
2019-03-19T10:28:47.257Z,475
2019-03-19T10:29:48.261Z,480
2019-03-19T10:30:47.479Z,480
2019-03-19T10:31:48.281Z,490
2019-03-19T10:32:47.469Z,500
2019-03-19T10:33:47.468Z,505
2019-03-19T10:34:47.230Z,510
2019-03-19T10:35:47.503Z,515
2019-03-19T10:36:47.436Z,525
2019-03-19T10:37:47.436Z,530
2019-03-19T10:38:47.444Z,530
2019-03-19T10:39:47.436Z,540
2019-03-19T10:40:47.415Z,545
2019-03-19T10:41:47.406Z,540
2019-03-19T10:42:47.707Z,515
2019-03-19T10:43:47.390Z,500
2019-03-19T10:44:47.137Z,480
2019-03-19T10:45:47.389Z,455
2019-03-19T10:46:47.372Z,420
2019-03-19T10:47:47.376Z,365
2019-03-19T10:48:47.376Z,340
2019-03-19T10:49:47.353Z,325
2019-03-19T10:50:47.346Z,325
2019-03-19T10:51:47.350Z,330
2019-03-19T10:52:47.334Z,360
2019-03-19T10:53:47.329Z,375
2019-03-19T10:54:47.321Z,380
2019-03-19T10:55:47.313Z,395
2019-03-19T10:56:48.542Z,410
2019-03-19T10:57:47.311Z,415
2019-03-19T10:58:47.298Z,410
2019-03-19T10:59:58.179Z,380
2019-03-19T11:00:47.313Z,355
2019-03-19T11:01:47.276Z,320
2019-03-19T11:02:47.267Z,310
2019-03-19T11:03:47.262Z,305
2019-03-19T11:04:47.296Z,325
2019-03-19T11:05:47.249Z,340
2019-03-19T11:06:47.254Z,325
2019-03-19T11:07:46.997Z,325
2019-03-19T11:08:47.227Z,320
2019-03-19T11:09:47.227Z,315
2019-03-19T11:10:47.212Z,300
2019-03-19T11:11:47.210Z,280
2019-03-19T11:12:47.203Z,265
2019-03-19T11:13:47.206Z,250
2019-03-19T11:14:46.946Z,255
2019-03-19T11:15:47.183Z,270
2019-03-19T11:16:47.173Z,280
2019-03-19T11:17:47.163Z,310
2019-03-19T11:18:47.461Z,320
2019-03-19T11:19:47.153Z,320
2019-03-19T11:20:48.006Z,310
2019-03-19T11:21:47.132Z,265
2019-03-19T11:22:47.140Z,230
2019-03-19T11:23:47.129Z,210
2019-03-19T11:24:47.113Z,210
2019-03-19T11:25:56.906Z,230
2019-03-19T11:26:47.112Z,260
2019-03-19T11:27:47.105Z,300
2019-03-19T11:28:46.847Z,335
2019-03-19T11:29:47.078Z,375
2019-03-19T11:30:47.066Z,415
2019-03-19T11:31:47.087Z,440
2019-03-19T11:32:47.048Z,445
2019-03-19T11:33:47.774Z,435
2019-03-19T11:34:47.065Z,405
2019-03-19T11:35:48.243Z,375
2019-03-19T11:36:57.135Z,335
2019-03-19T11:37:47.013Z,295
2019-03-19T11:38:47.065Z,270
2019-03-19T11:39:46.998Z,260
2019-03-19T11:40:46.993Z,275
2019-03-19T11:41:46.989Z,310
2019-03-19T11:42:46.975Z,350
2019-03-19T11:43:46.979Z,370
2019-03-19T11:44:47.737Z,355
2019-03-19T11:45:46.953Z,350
2019-03-19T11:46:46.947Z,350
2019-03-19T11:47:46.943Z,370
2019-03-19T11:48:46.979Z,380
2019-03-19T11:49:46.928Z,375
2019-03-19T11:50:46.917Z,360
2019-03-19T11:51:46.909Z,320
2019-03-19T11:52:47.355Z,300
2019-03-19T11:53:46.898Z,285
2019-03-19T11:54:46.644Z,270
2019-03-19T11:55:46.877Z,280
2019-03-19T11:56:46.876Z,340
2019-03-19T11:57:46.862Z,425
2019-03-19T11:58:46.861Z,480
2019-03-19T11:59:46.854Z,500
2019-03-19T12:00:47.149Z,485
2019-03-19T12:01:46.845Z,485
2019-03-19T12:02:46.827Z,515
2019-03-19T12:03:46.820Z,510
2019-03-19T12:04:46.813Z,480
2019-03-19T12:05:46.814Z,435
2019-03-19T12:06:46.809Z,395
2019-03-19T12:07:46.819Z,375
2019-03-19T12:08:46.822Z,365
2019-03-19T12:09:47.074Z,360
2019-03-19T12:10:46.775Z,355
2019-03-19T12:11:46.770Z,360
2019-03-19T12:12:46.758Z,370
2019-03-19T12:13:46.754Z,370
2019-03-19T12:14:47.395Z,370
2019-03-19T12:15:46.737Z,380
2019-03-19T12:16:46.731Z,370
2019-03-19T12:17:48.690Z,375
2019-03-19T12:18:46.476Z,375
2019-03-19T12:19:46.726Z,380
2019-03-19T12:20:46.710Z,375
2019-03-19T12:21:46.695Z,370
2019-03-19T12:22:46.689Z,370
2019-03-19T12:23:46.688Z,370
2019-03-19T12:24:46.673Z,360
2019-03-19T12:25:46.669Z,350
2019-03-19T12:26:46.663Z,345
2019-03-19T12:27:46.656Z,340
2019-03-19T12:28:49.524Z,335
2019-03-19T12:29:46.646Z,330
2019-03-19T12:30:46.642Z,335
2019-03-19T12:31:46.632Z,335
2019-03-19T12:32:46.629Z,355
2019-03-19T12:33:50.790Z,370
2019-03-19T12:34:46.611Z,385
2019-03-19T12:35:46.653Z,405
2019-03-19T12:36:46.605Z,405
2019-03-19T12:37:46.584Z,390
2019-03-19T12:38:46.348Z,355
2019-03-19T12:39:46.580Z,325
2019-03-19T12:40:47.148Z,320
2019-03-19T12:41:48.406Z,315
2019-03-19T12:42:46.615Z,300
2019-03-19T12:43:46.548Z,285
2019-03-19T12:44:46.543Z,285
2019-03-19T12:45:46.550Z,290
2019-03-19T12:46:46.534Z,285
2019-03-19T12:47:46.284Z,275
2019-03-19T12:48:46.278Z,255
2019-03-19T12:49:46.529Z,225
2019-03-19T12:50:46.502Z,210
2019-03-19T12:51:46.634Z,210
2019-03-19T12:52:46.488Z,215
2019-03-19T12:53:46.484Z,230
2019-03-19T12:54:47.452Z,255
2019-03-19T12:55:46.470Z,285
2019-03-19T12:56:46.227Z,310
2019-03-19T12:57:46.510Z,330
2019-03-19T12:58:46.450Z,340
2019-03-19T12:59:47.468Z,355
2019-03-19T13:00:46.459Z,365
2019-03-19T13:01:46.588Z,365
2019-03-19T13:02:46.194Z,370
2019-03-19T13:03:46.423Z,370
2019-03-19T13:04:46.167Z,370
2019-03-19T13:05:46.400Z,375
2019-03-19T13:06:46.395Z,375
2019-03-19T13:07:46.396Z,375
2019-03-19T13:08:46.426Z,375
2019-03-19T13:09:46.374Z,370
2019-03-19T13:10:46.369Z,370
2019-03-19T13:11:46.121Z,370
2019-03-19T13:12:46.351Z,360
2019-03-19T13:13:48.090Z,355
2019-03-19T13:14:46.341Z,340
2019-03-19T13:15:46.332Z,335
2019-03-19T13:16:47.719Z,340
2019-03-19T13:17:46.326Z,345
2019-03-19T13:18:46.312Z,350
2019-03-19T13:19:46.314Z,350
2019-03-19T13:20:46.306Z,340
2019-03-19T13:21:46.309Z,325
2019-03-19T13:22:46.291Z,315
2019-03-19T13:23:46.282Z,300
2019-03-19T13:24:46.284Z,300
2019-03-19T13:25:46.287Z,300
2019-03-19T13:26:46.254Z,305
2019-03-19T13:27:48.307Z,315
2019-03-19T13:28:48.132Z,340
2019-03-19T13:29:46.283Z,345
2019-03-19T13:30:54.632Z,350
2019-03-19T13:31:45.981Z,350
2019-03-19T13:32:46.216Z,360
2019-03-19T13:33:46.209Z,370
2019-03-19T13:34:46.209Z,375
2019-03-19T13:35:46.221Z,380
2019-03-19T13:36:46.186Z,380
2019-03-19T13:37:46.186Z,375
2019-03-19T13:38:46.171Z,370
2019-03-19T13:39:46.237Z,360
2019-03-19T13:40:46.177Z,360
2019-03-19T13:41:46.175Z,365
2019-03-19T13:42:46.140Z,365
2019-03-19T13:43:46.137Z,370
2019-03-19T13:44:46.135Z,365
2019-03-19T13:45:46.129Z,360
2019-03-19T13:46:46.142Z,355
2019-03-19T13:47:46.143Z,340
2019-03-19T13:48:46.108Z,330
2019-03-19T13:49:48.141Z,320
2019-03-19T13:50:46.100Z,320
2019-03-19T13:51:46.091Z,325
2019-03-19T13:52:46.118Z,320
2019-03-19T13:53:46.086Z,315
2019-03-19T13:54:46.059Z,315
2019-03-19T13:55:46.058Z,325
2019-03-19T13:56:46.047Z,325
2019-03-19T13:57:45.803Z,330
2019-03-19T13:58:46.050Z,330
2019-03-19T13:59:46.112Z,340
2019-03-19T14:00:55.251Z,340
2019-03-19T14:01:46.011Z,340
2019-03-19T14:02:46.018Z,340
2019-03-19T14:03:45.997Z,330
2019-03-19T14:04:45.993Z,325
2019-03-19T14:05:45.982Z,320
2019-03-19T14:06:45.975Z,315
2019-03-19T14:07:45.985Z,310
2019-03-19T14:08:45.965Z,305
2019-03-19T14:09:45.961Z,310
2019-03-19T14:10:45.944Z,305